My webcam  My webcam


Besök vår andra vädersida:

Template documentation
and downloads

And another site



Nearby METAR Reports

   
ESOE - Orebro (private), Sweden
Distance from station: SSV 25 km
Updated: 12-08-2020 16:20
Klart  
Klart  
   Vind: SV 4.6 m/s
Vind: SV 4.6 m/s
Temperature: 27°C
Daggpunkt: 9°C
Luftfuktighet: 32%
Barometer: 1021 hPa
Moln: Klart
Visibility: Mer än 10 km
Cloud details: Klart
ESOE 121420Z AUTO 22009KT 170V250 9999 R01///// R19/P2000N NCD 27/09 Q1021
ESSP - Norrkoping/Kungs, Sweden
Distance from station: SO 114 km
Updated: 12-08-2020 16:50
Klart  
Klart  
   Vind: varies 1.5 m/s
Vind: varies 1.5 m/s
Temperature: 25°C
Daggpunkt: 9°C
Luftfuktighet: 36%
Barometer: 1021 hPa
Moln: Klart
Visibility: Mer än 10 km
Cloud details: Klart
ESSP 121450Z AUTO VRB03KT 9999 NCD 25/09 Q1021
ESSB - Stockholm/Bromma, Sweden
Distance from station: O 156 km
Updated: 12-08-2020 16:50
Klart  
Klart  
   Vind: SSV 4.6 m/s
Vind: SSV 4.6 m/s
Temperature: 25°C
Daggpunkt: 13°C
Luftfuktighet: 47%
Barometer: 1020 hPa
Visibility: Mer än 10 km
Cloud details: Klart
ESSB 121450Z 20009KT CAVOK 25/13 Q1020
ESSV - Visby Airport, Sweden
Distance from station: SO 269 km
Updated: 12-08-2020 16:50
Klart  
Klart  
   Vind: Väst 3.6 m/s
Vind: Väst 3.6 m/s
Temperature: 19°C
Daggpunkt: 11°C
Luftfuktighet: 60%
Barometer: 1023 hPa
Visibility: Mer än 10 km
Cloud details: Klart
ESSV 121450Z 28007KT 250V310 CAVOK 19/11 Q1023
ESNZ - Ostersund/Froson, Sweden
Distance from station: SSV 1 km
Updated: 12-08-2020 16:50
Klart  
Klart  
   Vind: VNV 5.7 m/s
Vind: VNV 5.7 m/s
Temperature: 19°C
Daggpunkt: 8°C
Luftfuktighet: 49%
Barometer: 1020 hPa
Moln: Klart
Visibility: Mer än 10 km
Cloud details: Klart
ESNZ 121450Z AUTO 30011KT 9999 NCD 19/08 Q1020
ESPA - Kallax/Lulea (af, Sweden
Distance from station: SSO 7 km
Updated: 12-08-2020 16:50
Lätt regn, Delvis molnigt  
Lätt regn, Delvis molnigt  
   Vind: Syd 3.6 m/s
Vind: Syd 3.6 m/s
Temperature: 15°C
Daggpunkt: 13°C
Luftfuktighet: 88%
Barometer: 1020 hPa
Moln: Delvis molnigt
Visibility: Mer än 10 km
Cloud details: Glesa moln 1400 ft,
Delvis molnigt 7400 ft
ESPA 121450Z 19007KT 9999 -RA FEW014 SCT074 15/13 Q1020

Script developed by  Saratoga-weather.org Adapted for the template by  Weerstation Leuven